Time;durP1;ratioP1;P1;durP2;ratioP2;P2;SDS_P1;SDS_P2;PMS_P1;PMS_P2;Temp;Humidity;BMP_temperature;BMP_pressure;BME280_temperature;BME280_humidity;BME280_pressure;Samples;Min_cycle;Max_cycle;Signal;HPM_P1;HPM_P2
2021/04/26 00:00:31;;;;;;;6.57;1.80;;;8.50;61.70;;;;;;5019977;28;20026;-88
2021/04/26 00:02:58;;;;;;;6.13;1.80;;;8.50;62.00;;;;;;5003489;28;20392;-88
2021/04/26 00:05:26;;;;;;;7.53;1.95;;;8.40;62.40;;;;;;5001209;28;20026;-88
2021/04/26 00:07:53;;;;;;;6.63;1.73;;;8.30;62.90;;;;;;4994047;28;20044;-88
2021/04/26 00:10:19;;;;;;;5.70;1.60;;;8.30;63.30;;;;;;5004013;28;20033;-89
2021/04/26 00:12:46;;;;;;;7.13;1.73;;;8.30;63.60;;;;;;4999520;28;20022;-88
2021/04/26 00:15:18;;;;;;;4.95;1.42;;;8.30;63.60;;;;;;5003364;28;20028;-88
2021/04/26 00:17:45;;;;;;;5.32;1.85;;;8.30;63.80;;;;;;5019215;28;20121;-88
2021/04/26 00:20:12;;;;;;;5.32;1.80;;;8.30;64.10;;;;;;5014414;28;20053;-87
2021/04/26 00:22:38;;;;;;;6.60;1.77;;;8.20;64.60;;;;;;4999323;28;20113;-88
2021/04/26 00:25:06;;;;;;;6.53;2.00;;;8.30;64.90;;;;;;4999595;28;20057;-88
2021/04/26 00:27:34;;;;;;;8.20;2.00;;;8.00;65.20;;;;;;4999330;28;20109;-88
2021/04/26 00:30:00;;;;;;;6.10;1.73;;;8.00;65.50;;;;;;5002554;28;20033;-86
2021/04/26 00:32:34;;;;;;;8.02;1.98;;;8.00;66.10;;;;;;5018360;28;20049;-87
2021/04/26 00:35:00;;;;;;;5.68;1.80;;;7.90;66.20;;;;;;5018172;28;20116;-87
2021/04/26 00:37:26;;;;;;;9.90;2.20;;;8.10;66.60;;;;;;5017797;28;20450;-87
2021/04/26 00:39:51;;;;;;;8.43;1.90;;;7.80;67.20;;;;;;5007809;28;20026;-87
2021/04/26 00:42:17;;;;;;;6.35;1.88;;;7.80;67.30;;;;;;4997590;28;20360;-86
2021/04/26 00:44:43;;;;;;;6.05;2.00;;;7.80;67.40;;;;;;4997913;28;20463;-87
2021/04/26 00:47:08;;;;;;;6.07;1.88;;;7.80;67.90;;;;;;5015690;28;20021;-87
2021/04/26 00:49:34;;;;;;;5.93;1.98;;;7.70;67.90;;;;;;4981919;28;20081;-87
2021/04/26 00:52:00;;;;;;;6.28;1.80;;;7.70;68.10;;;;;;4998278;28;20125;-87
2021/04/26 00:54:26;;;;;;;7.32;2.05;;;7.70;68.30;;;;;;4988779;28;20037;-87
2021/04/26 00:56:52;;;;;;;6.57;1.75;;;7.70;68.80;;;;;;4981234;28;20034;-87
2021/04/26 00:59:18;;;;;;;7.70;2.40;;;7.60;69.10;;;;;;4993389;28;20037;-87
2021/04/26 01:01:44;;;;;;;8.57;2.17;;;7.60;69.20;;;;;;4998914;28;20030;-87
2021/04/26 01:04:10;;;;;;;5.95;1.90;;;7.60;69.60;;;;;;4995259;28;20030;-87
2021/04/26 01:06:36;;;;;;;10.27;2.75;;;7.50;69.90;;;;;;4999075;28;20044;-88
2021/04/26 01:09:02;;;;;;;9.55;2.33;;;7.50;70.20;;;;;;4998831;28;20390;-88
2021/04/26 01:11:48;;;;;;;7.60;2.20;;;7.50;70.40;;;;;;4998570;28;20049;-87
2021/04/26 01:14:38;;;;;;;8.82;2.20;;;7.50;70.80;;;;;;4968203;28;20042;-87
2021/04/26 01:17:26;;;;;;;9.88;2.20;;;7.50;71.10;;;;;;4998251;28;20441;-88
2021/04/26 01:20:14;;;;;;;6.18;2.15;;;7.50;71.90;;;;;;4998471;28;20032;-88
2021/04/26 01:23:15;;;;;;;6.90;2.25;;;7.50;72.60;;;;;;4998311;28;20040;-88
2021/04/26 01:25:42;;;;;;;5.95;2.05;;;7.50;73.00;;;;;;4998114;28;20475;-88
2021/04/26 01:28:50;;;;;;;7.80;1.92;;;7.40;73.80;;;;;;4997476;28;20030;-88
2021/04/26 01:31:29;;;;;;;6.05;2.15;;;7.40;74.20;;;;;;4997617;28;20099;-88
2021/04/26 01:33:59;;;;;;;7.80;2.20;;;7.40;75.10;;;;;;5006844;28;20076;-87
2021/04/26 01:36:27;;;;;;;7.20;2.30;;;7.40;75.50;;;;;;5017936;28;20517;-88
2021/04/26 01:38:56;;;;;;;4.68;2.15;;;7.40;75.90;;;;;;5035674;28;20029;-87
2021/04/26 01:41:25;;;;;;;6.20;2.08;;;7.30;76.70;;;;;;5017976;28;20037;-88
2021/04/26 01:43:52;;;;;;;5.25;2.40;;;7.20;77.40;;;;;;5007673;28;20117;-88
2021/04/26 01:46:19;;;;;;;9.90;2.63;;;7.20;78.10;;;;;;4997007;28;20088;-88
2021/04/26 01:48:48;;;;;;;6.20;2.53;;;7.20;78.60;;;;;;4979399;28;20030;-86
2021/04/26 01:51:14;;;;;;;7.93;3.05;;;7.40;79.30;;;;;;4980546;28;20078;-87
2021/04/26 01:53:42;;;;;;;8.73;2.58;;;7.30;80.00;;;;;;4998123;28;20041;-87
2021/04/26 01:56:11;;;;;;;7.18;2.97;;;7.10;80.40;;;;;;4997985;28;20060;-88
2021/04/26 01:58:40;;;;;;;7.30;3.03;;;7.10;80.90;;;;;;4998078;28;20079;-88
2021/04/26 02:01:07;;;;;;;8.52;2.83;;;7.10;81.60;;;;;;4997575;28;20045;-87
2021/04/26 02:03:34;;;;;;;10.65;3.08;;;7.10;82.90;;;;;;4997899;28;20036;-88
2021/04/26 02:06:00;;;;;;;7.90;3.03;;;7.10;82.70;;;;;;4998254;28;20026;-88
2021/04/26 02:08:27;;;;;;;8.30;3.05;;;7.10;83.40;;;;;;4998253;28;20030;-88
2021/04/26 02:10:54;;;;;;;9.25;3.20;;;6.90;84.40;;;;;;4986467;28;20062;-88
2021/04/26 02:13:23;;;;;;;7.15;2.90;;;7.00;85.10;;;;;;4995823;28;20046;-87
2021/04/26 02:15:51;;;;;;;9.43;3.03;;;7.00;85.60;;;;;;4978090;28;20030;-87
2021/04/26 02:18:17;;;;;;;8.32;3.03;;;6.90;85.80;;;;;;4980107;28;20030;-87
2021/04/26 02:20:43;;;;;;;7.43;3.00;;;7.00;86.60;;;;;;4993455;28;20030;-88
2021/04/26 02:23:08;;;;;;;8.63;3.03;;;7.20;87.00;;;;;;5001147;28;20399;-88
2021/04/26 02:25:34;;;;;;;6.78;3.03;;;7.00;87.50;;;;;;5001444;28;20454;-87
2021/04/26 02:28:00;;;;;;;7.25;3.35;;;6.90;88.00;;;;;;5001141;28;20471;-87
2021/04/26 02:30:27;;;;;;;9.27;3.63;;;6.90;88.50;;;;;;5001075;28;20030;-88
2021/04/26 02:33:11;;;;;;;5.72;3.08;;;6.90;88.50;;;;;;5001177;28;20030;-87
2021/04/26 02:35:39;;;;;;;12.25;3.33;;;6.80;89.50;;;;;;5005121;28;20034;-87
2021/04/26 02:38:15;;;;;;;9.80;3.42;;;6.90;89.90;;;;;;5006620;28;20040;-87
2021/04/26 02:40:44;;;;;;;6.70;3.05;;;6.80;89.90;;;;;;4981946;28;20113;-87
2021/04/26 02:43:12;;;;;;;9.70;3.30;;;6.90;90.20;;;;;;4999025;28;20076;-86
2021/04/26 02:45:44;;;;;;;10.25;3.50;;;6.80;90.10;;;;;;4981521;28;20038;-88
2021/04/26 02:48:11;;;;;;;7.85;3.20;;;6.70;90.40;;;;;;4999047;28;20050;-88
2021/04/26 02:50:36;;;;;;;6.68;3.40;;;6.60;90.60;;;;;;4990863;28;20053;-87
2021/04/26 02:53:02;;;;;;;11.52;3.72;;;6.50;91.20;;;;;;5000229;28;20030;-88
2021/04/26 02:55:30;;;;;;;9.25;3.42;;;6.50;91.80;;;;;;5000630;28;20029;-88
2021/04/26 02:57:57;;;;;;;9.48;3.30;;;6.50;91.90;;;;;;5000295;28;20116;-88
2021/04/26 03:00:24;;;;;;;8.65;3.30;;;6.50;92.20;;;;;;4991979;28;20105;-87
2021/04/26 03:02:51;;;;;;;10.02;3.70;;;6.50;91.90;;;;;;4983279;28;20029;-88
2021/04/26 03:05:17;;;;;;;7.20;3.13;;;6.50;92.10;;;;;;4992336;28;20558;-88
2021/04/26 03:07:44;;;;;;;8.50;3.88;;;6.50;92.20;;;;;;5000545;28;20058;-87
2021/04/26 03:10:13;;;;;;;10.43;3.40;;;6.50;92.30;;;;;;5000486;28;20521;-88
2021/04/26 03:12:42;;;;;;;7.45;3.03;;;6.40;92.20;;;;;;5017279;28;20455;-87
2021/04/26 03:15:13;;;;;;;9.18;3.10;;;6.50;92.40;;;;;;4998966;28;20441;-87
2021/04/26 03:17:40;;;;;;;10.95;3.13;;;6.40;92.60;;;;;;4999137;28;20034;-88
2021/04/26 03:20:12;;;;;;;9.63;2.92;;;6.30;92.80;;;;;;5001918;28;20030;-88
2021/04/26 03:22:39;;;;;;;8.33;3.43;;;6.30;93.20;;;;;;4995007;28;20479;-87
2021/04/26 03:25:07;;;;;;;8.00;3.28;;;6.30;93.00;;;;;;4980517;28;20301;-87
2021/04/26 03:27:33;;;;;;;9.35;3.67;;;6.30;93.10;;;;;;4980651;28;20030;-88
2021/04/26 03:30:00;;;;;;;8.70;3.73;;;6.20;92.90;;;;;;4983833;28;20579;-87
2021/04/26 03:32:27;;;;;;;10.38;3.45;;;6.20;93.20;;;;;;4992865;28;20081;-88
2021/04/26 03:34:54;;;;;;;7.90;3.30;;;6.10;93.20;;;;;;4979326;28;20037;-87
2021/04/26 03:37:20;;;;;;;7.93;3.60;;;6.10;93.20;;;;;;4979585;28;20030;-87
2021/04/26 03:39:46;;;;;;;9.98;3.78;;;6.10;93.20;;;;;;4985251;28;20555;-87
2021/04/26 03:42:16;;;;;;;9.10;3.60;;;6.10;93.30;;;;;;4998828;28;20160;-88
2021/04/26 03:44:50;;;;;;;7.50;3.45;;;6.00;93.20;;;;;;4998813;28;20061;-88
2021/04/26 03:47:16;;;;;;;8.55;3.90;;;6.00;93.70;;;;;;4998830;28;20029;-87
2021/04/26 03:49:42;;;;;;;8.47;3.40;;;6.00;93.40;;;;;;4998048;28;20029;-87
2021/04/26 03:52:09;;;;;;;9.70;3.67;;;6.10;93.30;;;;;;4999135;28;20037;-88
2021/04/26 03:54:35;;;;;;;10.43;4.47;;;6.00;93.40;;;;;;4998707;28;20034;-88
2021/04/26 03:57:01;;;;;;;5.88;2.92;;;6.00;93.30;;;;;;5000270;28;20038;-88
2021/04/26 03:59:27;;;;;;;6.40;3.40;;;6.00;93.60;;;;;;5018069;28;20053;-87
2021/04/26 04:01:53;;;;;;;6.50;3.15;;;6.00;93.50;;;;;;4994186;28;20053;-88
2021/04/26 04:04:18;;;;;;;10.18;3.67;;;6.10;93.60;;;;;;4978239;28;20084;-87
2021/04/26 04:06:44;;;;;;;9.57;3.50;;;6.00;93.20;;;;;;4978805;28;20550;-88
2021/04/26 04:09:10;;;;;;;11.43;4.00;;;6.00;93.60;;;;;;4995109;28;20117;-88
2021/04/26 04:11:37;;;;;;;9.73;4.10;;;6.00;93.30;;;;;;4978683;28;20038;-88
2021/04/26 04:14:03;;;;;;;9.48;3.70;;;5.90;93.40;;;;;;4979261;28;20034;-86
2021/04/26 04:16:30;;;;;;;7.18;3.63;;;6.00;93.50;;;;;;4987461;28;20125;-88
2021/04/26 04:18:56;;;;;;;7.40;3.35;;;6.00;93.10;;;;;;4995207;28;20124;-88
2021/04/26 04:21:22;;;;;;;11.32;3.47;;;5.90;92.90;;;;;;4995657;28;20031;-87
2021/04/26 04:23:48;;;;;;;5.43;3.15;;;5.70;92.80;;;;;;4997336;28;20052;-87
2021/04/26 04:26:14;;;;;;;7.88;3.53;;;5.80;92.90;;;;;;4999550;28;20029;-88
2021/04/26 04:28:39;;;;;;;8.40;3.33;;;5.70;92.80;;;;;;4999384;28;20497;-87
2021/04/26 04:31:05;;;;;;;8.90;3.33;;;5.70;93.00;;;;;;4999323;28;20056;-87
2021/04/26 04:33:32;;;;;;;7.37;3.17;;;5.60;93.10;;;;;;5033561;28;20045;-87
2021/04/26 04:35:58;;;;;;;8.27;2.80;;;5.50;92.90;;;;;;5018905;28;20029;-88
2021/04/26 04:38:25;;;;;;;10.40;3.40;;;5.50;93.20;;;;;;5019043;28;20029;-88
2021/04/26 04:40:51;;;;;;;6.87;3.17;;;5.60;93.30;;;;;;5005277;28;20026;-87
2021/04/26 04:43:17;;;;;;;9.80;3.20;;;5.40;93.50;;;;;;4987430;28;20018;-87
2021/04/26 04:45:43;;;;;;;8.40;3.03;;;5.30;92.90;;;;;;4996776;28;20073;-88
2021/04/26 04:48:08;;;;;;;9.23;3.00;;;5.50;93.00;;;;;;4996666;28;20029;-87
2021/04/26 04:50:34;;;;;;;9.93;3.17;;;5.30;93.30;;;;;;5018106;28;20122;-87
2021/04/26 04:53:00;;;;;;;9.37;3.17;;;5.30;92.60;;;;;;5009652;28;20033;-88
2021/04/26 04:55:25;;;;;;;6.53;3.17;;;5.30;92.50;;;;;;4990301;28;20026;-87
2021/04/26 04:57:51;;;;;;;7.50;3.40;;;5.50;92.50;;;;;;4998621;28;20052;-87
2021/04/26 05:00:17;;;;;;;7.90;2.90;;;5.30;92.20;;;;;;5013899;28;20037;-87
2021/04/26 05:02:42;;;;;;;6.37;2.80;;;5.30;92.10;;;;;;5014608;28;20026;-87
2021/04/26 05:05:09;;;;;;;8.20;3.30;;;5.30;92.00;;;;;;4993383;28;20076;-87
2021/04/26 05:07:35;;;;;;;7.10;2.97;;;5.40;91.80;;;;;;4996061;28;20026;-88
2021/04/26 05:10:00;;;;;;;9.37;3.07;;;5.40;91.80;;;;;;4979356;28;20034;-87
2021/04/26 05:12:27;;;;;;;10.30;3.80;;;5.30;91.90;;;;;;4988422;28;20037;-88
2021/04/26 05:14:52;;;;;;;8.47;3.10;;;5.40;91.70;;;;;;4995110;28;20038;-87
2021/04/26 05:17:18;;;;;;;7.90;2.97;;;5.60;91.30;;;;;;5001685;28;20022;-87
2021/04/26 05:19:44;;;;;;;6.60;2.83;;;5.50;91.40;;;;;;5008173;28;20027;-88
2021/04/26 05:22:11;;;;;;;10.60;2.70;;;5.60;91.30;;;;;;4982593;28;20113;-87
2021/04/26 05:24:37;;;;;;;9.23;3.00;;;5.70;90.80;;;;;;4988655;28;20455;-88
2021/04/26 05:27:03;;;;;;;10.30;2.57;;;5.70;90.70;;;;;;4995530;28;20049;-87
2021/04/26 05:29:31;;;;;;;6.10;2.73;;;5.80;90.20;;;;;;5009134;28;20487;-87
2021/04/26 05:31:57;;;;;;;8.20;3.30;;;5.90;89.80;;;;;;5006087;28;20026;-87
2021/04/26 05:34:22;;;;;;;10.37;2.80;;;5.90;89.30;;;;;;5004014;28;20045;-87
2021/04/26 05:36:48;;;;;;;8.00;2.87;;;6.10;90.00;;;;;;4984370;28;20047;-87
2021/04/26 05:39:14;;;;;;;9.03;2.93;;;6.20;88.70;;;;;;5003752;28;20108;-87
2021/04/26 05:41:40;;;;;;;5.90;2.57;;;6.40;87.60;;;;;;4985434;28;20030;-86
2021/04/26 05:44:06;;;;;;;6.80;2.67;;;6.40;87.10;;;;;;4993959;28;20049;-87
2021/04/26 05:46:31;;;;;;;9.23;2.80;;;6.60;87.20;;;;;;4981919;28;20030;-86
2021/04/26 05:48:57;;;;;;;7.85;2.88;;;6.70;86.70;;;;;;4989138;28;20026;-87
2021/04/26 05:51:23;;;;;;;7.53;2.58;;;6.80;85.10;;;;;;4981730;28;20042;-86
2021/04/26 05:53:49;;;;;;;7.45;2.58;;;6.80;85.10;;;;;;4983264;28;20041;-87
2021/04/26 05:56:15;;;;;;;10.98;2.80;;;6.90;85.10;;;;;;4991718;28;20026;-86
2021/04/26 05:58:40;;;;;;;9.13;2.75;;;6.90;84.40;;;;;;4986911;28;20033;-85
2021/04/26 06:01:06;;;;;;;11.38;3.40;;;7.00;84.20;;;;;;5003577;28;20082;-87
2021/04/26 06:03:32;;;;;;;7.95;3.30;;;7.00;83.80;;;;;;4983688;28;20037;-83
2021/04/26 06:05:58;;;;;;;8.18;2.50;;;7.30;83.40;;;;;;4990086;28;20111;-83
2021/04/26 06:08:25;;;;;;;7.75;2.75;;;7.40;83.00;;;;;;5003066;28;20030;-83
2021/04/26 06:10:50;;;;;;;9.00;3.35;;;7.50;82.30;;;;;;4989472;28;20708;-83
2021/04/26 06:13:17;;;;;;;6.70;3.25;;;7.70;81.70;;;;;;4994567;28;20029;-84
2021/04/26 06:15:42;;;;;;;9.98;3.20;;;7.50;81.10;;;;;;4992710;28;20030;-84
2021/04/26 06:18:12;;;;;;;8.88;3.30;;;7.70;81.90;;;;;;5012275;28;20614;-87
2021/04/26 06:20:42;;;;;;;8.05;2.90;;;7.80;81.00;;;;;;5013171;28;20072;-85
2021/04/26 06:23:09;;;;;;;11.55;3.25;;;7.90;79.70;;;;;;4998943;28;20032;-84
2021/04/26 06:25:37;;;;;;;7.30;2.78;;;7.90;79.40;;;;;;4997483;28;20041;-85
2021/04/26 06:28:07;;;;;;;7.70;2.80;;;7.90;79.20;;;;;;4998430;28;20390;-84
2021/04/26 06:30:34;;;;;;;10.90;3.03;;;8.10;79.50;;;;;;5008207;28;20025;-85
2021/04/26 06:33:00;;;;;;;9.07;3.03;;;8.10;79.10;;;;;;4997204;28;20026;-85
2021/04/26 06:35:26;;;;;;;8.48;3.30;;;8.20;79.00;;;;;;4998608;28;20033;-84
2021/04/26 06:37:54;;;;;;;12.10;3.22;;;8.20;78.30;;;;;;4996759;28;20545;-85
2021/04/26 06:40:20;;;;;;;8.45;3.10;;;8.10;78.60;;;;;;4996201;28;20129;-84
2021/04/26 06:42:46;;;;;;;7.63;3.40;;;8.10;78.90;;;;;;4993501;28;20195;-84
2021/04/26 06:45:12;;;;;;;6.20;2.90;;;8.30;79.00;;;;;;4989835;28;20121;-85
2021/04/26 06:47:39;;;;;;;9.88;3.63;;;8.40;78.10;;;;;;5001120;28;20034;-85
2021/04/26 06:50:06;;;;;;;9.25;3.28;;;8.40;78.10;;;;;;5004731;28;20108;-88
2021/04/26 06:52:32;;;;;;;7.47;3.47;;;8.60;77.90;;;;;;4990609;28;20038;-87
2021/04/26 06:54:57;;;;;;;9.27;2.85;;;8.70;78.30;;;;;;5002771;28;20447;-85
2021/04/26 06:57:23;;;;;;;6.47;2.85;;;8.90;76.80;;;;;;4991405;28;20136;-84
2021/04/26 06:59:49;;;;;;;6.90;3.03;;;9.00;77.20;;;;;;4993426;28;20053;-82
2021/04/26 07:02:14;;;;;;;8.68;3.17;;;9.20;75.70;;;;;;4989544;28;20049;-83
2021/04/26 07:04:40;;;;;;;7.65;3.17;;;9.30;74.50;;;;;;4991627;28;20031;-82
2021/04/26 07:07:06;;;;;;;6.88;3.00;;;9.40;74.70;;;;;;5007848;28;20066;-83
2021/04/26 07:09:32;;;;;;;10.80;3.45;;;9.50;74.40;;;;;;5007262;28;20100;-83
2021/04/26 07:11:57;;;;;;;10.65;3.40;;;9.50;73.00;;;;;;4996710;28;20064;-83
2021/04/26 07:14:24;;;;;;;8.10;3.33;;;9.60;73.80;;;;;;4994859;28;20021;-82
2021/04/26 07:16:50;;;;;;;8.25;3.45;;;9.60;73.10;;;;;;4992193;28;20079;-82
2021/04/26 07:19:16;;;;;;;7.43;3.00;;;9.70;71.70;;;;;;4990383;28;20054;-83
2021/04/26 07:21:42;;;;;;;7.38;2.75;;;9.70;72.00;;;;;;4986341;28;20061;-83
2021/04/26 07:24:08;;;;;;;9.23;3.47;;;9.80;71.30;;;;;;4989354;28;20054;-83
2021/04/26 07:26:34;;;;;;;7.50;3.05;;;9.80;71.60;;;;;;4994607;28;20104;-83
2021/04/26 07:29:00;;;;;;;6.72;3.30;;;10.00;71.80;;;;;;4993865;28;20023;-83
2021/04/26 07:31:27;;;;;;;7.50;3.35;;;10.10;70.80;;;;;;4988347;28;20034;-84
2021/04/26 07:33:53;;;;;;;6.32;2.97;;;10.10;70.30;;;;;;4986907;28;20025;-84
2021/04/26 07:36:19;;;;;;;11.48;3.30;;;10.20;69.70;;;;;;4982986;28;20025;-87
2021/04/26 07:38:46;;;;;;;7.63;2.95;;;10.30;70.20;;;;;;4995106;28;20087;-84
2021/04/26 07:41:12;;;;;;;7.00;2.75;;;10.50;69.20;;;;;;4987951;28;20045;-84
2021/04/26 07:43:40;;;;;;;7.10;3.22;;;10.40;69.10;;;;;;4987622;28;20066;-83
2021/04/26 07:46:06;;;;;;;6.45;2.75;;;10.50;68.30;;;;;;4990479;28;20466;-83
2021/04/26 07:48:33;;;;;;;12.43;3.10;;;10.70;68.30;;;;;;4982802;28;20022;-84
2021/04/26 07:50:59;;;;;;;12.13;3.25;;;10.70;68.60;;;;;;4988454;28;20034;-84
2021/04/26 07:53:24;;;;;;;6.97;2.90;;;11.00;67.60;;;;;;4990357;28;20097;-85
2021/04/26 07:55:50;;;;;;;7.15;3.28;;;10.90;67.30;;;;;;4991134;28;20083;-85
2021/04/26 07:58:16;;;;;;;7.55;3.33;;;10.80;67.20;;;;;;4989470;28;20430;-84
2021/04/26 08:00:42;;;;;;;6.45;2.72;;;10.80;67.20;;;;;;4998289;28;20056;-84
2021/04/26 08:03:07;;;;;;;10.18;3.67;;;10.80;67.60;;;;;;4995522;28;20487;-86
2021/04/26 08:05:34;;;;;;;6.45;2.90;;;11.00;67.50;;;;;;4992128;28;20396;-85
2021/04/26 08:08:00;;;;;;;8.88;3.38;;;11.10;66.70;;;;;;5008353;28;20099;-84
2021/04/26 08:10:25;;;;;;;10.80;3.72;;;11.30;67.10;;;;;;4988994;28;20487;-85
2021/04/26 08:12:51;;;;;;;6.78;3.30;;;11.40;65.80;;;;;;4987663;28;20111;-85
2021/04/26 08:15:19;;;;;;;6.60;3.22;;;11.50;65.20;;;;;;4987603;28;20040;-85
2021/04/26 08:17:45;;;;;;;7.35;3.08;;;11.50;64.70;;;;;;4992465;28;20025;-85
2021/04/26 08:20:11;;;;;;;12.30;3.53;;;11.50;65.10;;;;;;4994209;28;20384;-84
2021/04/26 08:22:37;;;;;;;9.25;2.90;;;11.30;64.60;;;;;;4985186;28;20076;-85
2021/04/26 08:25:04;;;;;;;7.57;2.88;;;11.50;64.80;;;;;;4992675;28;20031;-85
2021/04/26 08:27:30;;;;;;;7.60;3.33;;;11.40;65.30;;;;;;4995955;28;20534;-84
2021/04/26 08:29:56;;;;;;;6.40;3.38;;;11.60;65.00;;;;;;4995030;28;20450;-85
2021/04/26 08:32:21;;;;;;;6.65;3.13;;;11.90;64.60;;;;;;4988427;28;20026;-85
2021/04/26 08:34:47;;;;;;;8.15;4.22;;;12.00;63.90;;;;;;4992976;28;20044;-83
2021/04/26 08:37:21;;;;;;;7.53;3.47;;;12.20;62.80;;;;;;4992289;28;20025;-84
2021/04/26 08:39:47;;;;;;;8.27;3.13;;;12.30;63.30;;;;;;4995232;28;20038;-84
2021/04/26 08:42:33;;;;;;;8.70;3.60;;;12.30;62.90;;;;;;5017156;28;20025;-84
2021/04/26 08:45:20;;;;;;;11.15;3.22;;;12.50;61.90;;;;;;4992531;28;20057;-84
2021/04/26 08:48:12;;;;;;;10.18;3.22;;;12.70;62.10;;;;;;4992193;28;20096;-84
2021/04/26 08:50:42;;;;;;;6.72;2.92;;;13.00;60.90;;;;;;5014158;28;20202;-83
2021/04/26 08:53:25;;;;;;;6.53;3.20;;;13.20;60.40;;;;;;4994640;28;20022;-84
2021/04/26 08:55:57;;;;;;;9.20;3.20;;;13.20;59.80;;;;;;5002947;28;20104;-83
2021/04/26 08:58:32;;;;;;;7.35;3.08;;;13.30;59.90;;;;;;4988788;28;20038;-83
2021/04/26 09:00:58;;;;;;;9.85;3.80;;;13.40;59.00;;;;;;5003933;28;20034;-85
2021/04/26 09:03:36;;;;;;;10.43;3.22;;;13.20;58.70;;;;;;5002084;28;20551;-83
2021/04/26 09:06:16;;;;;;;7.03;2.80;;;13.40;59.30;;;;;;4999739;28;20022;-83
2021/04/26 09:09:31;;;;;;;8.45;3.53;;;13.60;58.20;;;;;;4992413;28;20038;-83
2021/04/26 09:11:56;;;;;;;7.93;3.05;;;13.50;58.70;;;;;;5010373;28;20131;-83
2021/04/26 09:14:57;;;;;;;7.97;3.30;;;13.60;59.00;;;;;;4989578;28;20064;-83
2021/04/26 09:17:34;;;;;;;9.68;3.60;;;13.90;59.00;;;;;;4975043;28;20486;-83
2021/04/26 09:20:21;;;;;;;7.72;3.65;;;14.00;58.00;;;;;;5005384;28;20026;-83
2021/04/26 09:22:57;;;;;;;8.10;3.35;;;14.20;56.90;;;;;;5001965;28;20129;-83
2021/04/26 09:25:31;;;;;;;12.15;3.50;;;14.40;56.70;;;;;;4989141;28;20038;-83
2021/04/26 09:28:05;;;;;;;7.28;3.58;;;14.40;56.80;;;;;;5000472;28;20022;-83
2021/04/26 09:30:49;;;;;;;9.20;3.45;;;14.20;56.10;;;;;;4985632;28;20042;-83
2021/04/26 09:33:20;;;;;;;8.30;3.22;;;14.20;56.30;;;;;;4997064;28;20030;-83
2021/04/26 09:35:58;;;;;;;7.03;3.42;;;14.40;56.70;;;;;;5007936;28;20116;-83
2021/04/26 09:38:32;;;;;;;7.55;3.20;;;14.50;56.00;;;;;;4988576;28;20077;-83
2021/04/26 09:41:15;;;;;;;7.05;3.10;;;14.60;57.10;;;;;;4987289;28;20041;-83
2021/04/26 09:43:43;;;;;;;7.00;3.42;;;14.90;55.30;;;;;;4983482;28;20030;-83
2021/04/26 09:46:13;;;;;;;11.20;4.00;;;15.10;54.50;;;;;;4982459;28;20554;-83
2021/04/26 09:48:41;;;;;;;6.38;3.40;;;15.10;54.00;;;;;;5002720;28;20086;-83
2021/04/26 09:51:20;;;;;;;8.90;3.65;;;15.00;54.30;;;;;;4995665;28;20061;-83
2021/04/26 09:53:51;;;;;;;6.40;2.80;;;14.70;54.50;;;;;;5006519;28;20058;-84
2021/04/26 09:56:27;;;;;;;7.40;3.35;;;14.80;55.10;;;;;;4994282;28;20053;-84
2021/04/26 09:58:58;;;;;;;12.68;4.45;;;15.00;53.80;;;;;;4996477;28;20394;-84
2021/04/26 10:01:27;;;;;;;9.98;3.47;;;15.10;52.90;;;;;;4994613;28;20061;-84
2021/04/26 10:03:53;;;;;;;8.95;3.55;;;15.00;53.00;;;;;;4994290;23;20058;-83
2021/04/26 10:06:21;;;;;;;9.70;3.50;;;15.20;53.10;;;;;;4967610;28;20022;-83
2021/04/26 10:08:48;;;;;;;8.50;3.58;;;15.00;53.10;;;;;;4959694;28;20644;-84
2021/04/26 10:11:15;;;;;;;9.77;3.30;;;15.20;52.80;;;;;;4970319;28;20033;-84
2021/04/26 10:13:42;;;;;;;7.82;3.30;;;15.30;52.50;;;;;;4971115;28;20084;-84
2021/04/26 10:16:13;;;;;;;8.43;3.45;;;15.40;52.60;;;;;;4976328;28;20549;-84
2021/04/26 10:18:40;;;;;;;8.17;3.57;;;15.50;54.00;;;;;;4977403;28;20415;-84
2021/04/26 10:21:31;;;;;;;7.00;3.20;;;15.80;53.10;;;;;;4970846;28;20057;-84
2021/04/26 10:23:57;;;;;;;8.50;3.38;;;16.10;51.00;;;;;;4945540;28;20360;-84
2021/04/26 10:26:42;;;;;;;8.52;3.30;;;16.20;49.80;;;;;;4974749;28;20045;-84
2021/04/26 10:29:29;;;;;;;6.38;2.53;;;16.50;50.30;;;;;;4958600;28;20538;-84
2021/04/26 10:32:01;;;;;;;6.60;2.92;;;16.80;49.30;;;;;;4956941;28;20015;-84
2021/04/26 10:34:29;;;;;;;5.97;2.90;;;16.50;49.00;;;;;;4954938;28;20117;-83
2021/04/26 10:36:57;;;;;;;7.20;3.00;;;16.50;47.50;;;;;;4975419;28;20018;-83
2021/04/26 10:39:24;;;;;;;6.47;3.10;;;16.20;47.80;;;;;;4959555;28;20039;-83
2021/04/26 10:41:56;;;;;;;7.80;3.15;;;16.40;47.20;;;;;;4972903;28;20029;-83
2021/04/26 10:44:41;;;;;;;6.53;2.70;;;16.60;48.70;;;;;;4975001;28;20015;-84
2021/04/26 10:47:27;;;;;;;8.45;3.10;;;16.90;48.00;;;;;;4964831;28;20027;-83
2021/04/26 10:50:16;;;;;;;9.60;3.17;;;17.00;46.60;;;;;;4969461;28;20051;-83
2021/04/26 10:52:55;;;;;;;5.28;2.78;;;17.10;46.80;;;;;;4958080;28;20026;-83
2021/04/26 10:55:24;;;;;;;8.40;2.83;;;17.10;46.70;;;;;;4953698;28;20038;-83
2021/04/26 10:57:57;;;;;;;10.32;3.22;;;17.00;44.90;;;;;;4972766;28;20027;-83
2021/04/26 11:02:49;;;;;;;7.57;3.10;;;17.30;45.90;;;;;;4978374;28;20023;-83
2021/04/26 11:05:36;;;;;;;5.22;2.47;;;17.40;44.80;;;;;;4994688;28;20030;-84
2021/04/26 11:08:17;;;;;;;9.40;2.63;;;17.50;44.40;;;;;;4981601;28;20030;-83
2021/04/26 11:10:52;;;;;;;9.88;2.97;;;17.80;44.20;;;;;;4979814;28;20115;-84
2021/04/26 11:13:33;;;;;;;7.82;3.05;;;17.90;43.60;;;;;;4961762;28;20130;-84
2021/04/26 11:16:16;;;;;;;5.95;3.20;;;17.50;44.00;;;;;;4963310;28;20066;-84
2021/04/26 11:18:47;;;;;;;6.60;2.97;;;17.70;44.40;;;;;;4963965;28;20033;-84
2021/04/26 11:21:48;;;;;;;5.88;2.72;;;17.70;44.20;;;;;;4979906;28;20098;-83
2021/04/26 11:24:26;;;;;;;6.07;2.80;;;17.90;42.50;;;;;;4965061;28;20460;-84
2021/04/26 11:27:19;;;;;;;4.68;2.47;;;18.10;42.10;;;;;;4956695;28;20038;-83
2021/04/26 11:29:44;;;;;;;5.65;2.40;;;18.20;41.60;;;;;;4972194;28;20022;-83
2021/04/26 11:32:12;;;;;;;8.40;3.13;;;18.50;41.30;;;;;;4972983;28;20019;-84
2021/04/26 11:34:46;;;;;;;6.25;2.80;;;18.60;41.40;;;;;;4976954;28;20030;-84
2021/04/26 11:37:13;;;;;;;6.10;3.05;;;18.80;41.10;;;;;;4979281;28;20033;-84
2021/04/26 11:39:43;;;;;;;6.57;2.55;;;18.80;40.70;;;;;;4965787;28;20046;-84
2021/04/26 11:42:18;;;;;;;5.80;2.45;;;18.80;41.80;;;;;;4971469;28;20023;-84
2021/04/26 11:44:43;;;;;;;5.70;2.47;;;18.70;41.50;;;;;;4970531;28;20043;-84
2021/04/26 11:47:14;;;;;;;5.03;2.53;;;19.00;41.40;;;;;;4966472;28;20027;-84
2021/04/26 11:49:48;;;;;;;7.45;2.60;;;19.00;40.40;;;;;;4966721;28;20027;-84
2021/04/26 11:52:20;;;;;;;7.68;2.38;;;19.00;40.20;;;;;;4975700;28;20503;-84
2021/04/26 11:54:48;;;;;;;7.55;2.50;;;19.20;41.80;;;;;;4981940;28;20030;-85
2021/04/26 11:57:21;;;;;;;8.52;2.70;;;19.20;42.10;;;;;;4971899;28;20506;-84
2021/04/26 12:00:03;;;;;;;5.88;2.30;;;19.70;39.80;;;;;;4951182;28;20039;-85
2021/04/26 12:02:40;;;;;;;8.07;2.58;;;20.00;40.10;;;;;;4976578;28;20027;-84
2021/04/26 12:05:16;;;;;;;6.25;2.72;;;20.30;39.90;;;;;;4984890;28;20042;-85
2021/04/26 12:07:43;;;;;;;6.75;2.45;;;20.30;38.00;;;;;;4975895;28;20027;-85
2021/04/26 12:10:12;;;;;;;6.20;2.38;;;20.30;38.50;;;;;;4992971;28;20026;-85
2021/04/26 12:12:39;;;;;;;7.55;2.80;;;20.00;39.20;;;;;;4975633;28;20380;-85
2021/04/26 12:15:14;;;;;;;7.07;2.35;;;19.70;39.20;;;;;;4975734;28;20041;-84
2021/04/26 12:17:42;;;;;;;6.30;2.30;;;20.00;40.00;;;;;;4962930;28;20023;-84
2021/04/26 12:20:18;;;;;;;7.85;2.40;;;20.30;38.90;;;;;;4976597;28;20097;-84
2021/04/26 12:22:45;;;;;;;4.80;2.30;;;20.30;37.80;;;;;;4974600;28;20054;-84
2021/04/26 12:25:12;;;;;;;7.43;2.63;;;20.50;37.90;;;;;;4958094;28;20117;-84
2021/04/26 12:27:39;;;;;;;9.68;2.33;;;20.60;36.30;;;;;;4956158;28;20061;-84
2021/04/26 12:30:20;;;;;;;9.32;2.60;;;20.50;38.50;;;;;;4956068;28;20019;-84
2021/04/26 12:32:46;;;;;;;6.00;2.30;;;20.70;36.60;;;;;;4955960;28;20022;-84
2021/04/26 12:35:16;;;;;;;8.93;2.55;;;20.70;36.40;;;;;;4972849;28;20027;-84
2021/04/26 12:37:46;;;;;;;4.95;2.20;;;20.80;37.90;;;;;;4956265;28;20031;-84
2021/04/26 12:40:30;;;;;;;6.35;2.30;;;20.50;36.30;;;;;;4968147;28;20029;-84
2021/04/26 12:42:58;;;;;;;6.03;2.22;;;20.40;36.50;;;;;;4968107;28;20055;-84
2021/04/26 12:45:26;;;;;;;5.57;2.30;;;20.30;38.10;;;;;;4946192;28;20027;-84
2021/04/26 12:47:53;;;;;;;6.95;2.17;;;20.30;38.30;;;;;;4954770;28;20480;-84
2021/04/26 12:50:24;;;;;;;6.55;2.15;;;20.60;37.30;;;;;;4960986;28;20031;-84
2021/04/26 12:53:17;;;;;;;6.80;2.60;;;21.00;36.70;;;;;;4973729;28;20099;-85
2021/04/26 12:55:42;;;;;;;;;;;20.80;36.60;;;;;;4975100;28;20022;-84
2021/04/26 12:58:18;;;;;;;7.13;2.42;;;21.10;36.70;;;;;;4969447;28;19916;-84
2021/04/26 13:01:00;;;;;;;5.38;2.00;;;21.10;36.30;;;;;;4971730;28;20027;-83
2021/04/26 13:03:30;;;;;;;4.75;1.80;;;21.10;33.20;;;;;;4971229;28;20043;-84
2021/04/26 13:06:07;;;;;;;6.53;2.25;;;21.10;35.00;;;;;;4967320;28;20019;-84
2021/04/26 13:08:35;;;;;;;4.35;1.70;;;21.20;34.90;;;;;;4965873;28;20023;-84